地図

経路データ

SID SEASON NUMBER BASIN SUBBASIN NAME ISO_TIME NATURE LAT LON WMO_WIND WMO_PRES WMO_AGENCY TRACK_TYPE DIST2LAND LANDFALL IFLAG USA_AGENCY USA_ATCF_ID USA_LAT USA_LON USA_RECORD USA_STATUS USA_WIND USA_PRES USA_SSHS USA_R34_NE USA_R34_SE USA_R34_SW USA_R34_NW USA_R50_NE USA_R50_SE USA_R50_SW USA_R50_NW USA_R64_NE USA_R64_SE USA_R64_SW USA_R64_NW USA_POCI USA_ROCI USA_RMW USA_EYE TOKYO_LAT TOKYO_LON TOKYO_GRADE TOKYO_WIND TOKYO_PRES TOKYO_R50_DIR TOKYO_R50_LONG TOKYO_R50_SHORT TOKYO_R30_DIR TOKYO_R30_LONG TOKYO_R30_SHORT TOKYO_LAND CMA_LAT CMA_LON CMA_CAT CMA_WIND CMA_PRES HKO_LAT HKO_LON HKO_CAT HKO_WIND HKO_PRES NEWDELHI_LAT NEWDELHI_LON NEWDELHI_GRADE NEWDELHI_WIND NEWDELHI_PRES NEWDELHI_CI NEWDELHI_DP NEWDELHI_POCI REUNION_LAT REUNION_LON REUNION_TYPE REUNION_WIND REUNION_PRES REUNION_TNUM REUNION_CI REUNION_RMW REUNION_R34_NE REUNION_R34_SE REUNION_R34_SW REUNION_R34_NW REUNION_R50_NE REUNION_R50_SE REUNION_R50_SW REUNION_R50_NW REUNION_R64_NE REUNION_R64_SE REUNION_R64_SW REUNION_R64_NW BOM_LAT BOM_LON BOM_TYPE BOM_WIND BOM_PRES BOM_TNUM BOM_CI BOM_RMW BOM_R34_NE BOM_R34_SE BOM_R34_SW BOM_R34_NW BOM_R50_NE BOM_R50_SE BOM_R50_SW BOM_R50_NW BOM_R64_NE BOM_R64_SE BOM_R64_SW BOM_R64_NW BOM_ROCI BOM_POCI BOM_EYE BOM_POS_METHOD BOM_PRES_METHOD NADI_LAT NADI_LON NADI_CAT NADI_WIND NADI_PRES WELLINGTON_LAT WELLINGTON_LON WELLINGTON_WIND WELLINGTON_PRES DS824_LAT DS824_LON DS824_STAGE DS824_WIND DS824_PRES TD9636_LAT TD9636_LON TD9636_STAGE TD9636_WIND TD9636_PRES TD9635_LAT TD9635_LON TD9635_WIND TD9635_PRES TD9635_ROCI NEUMANN_LAT NEUMANN_LON NEUMANN_CLASS NEUMANN_WIND NEUMANN_PRES MLC_LAT MLC_LON MLC_CLASS MLC_WIND MLC_PRES USA_GUST BOM_GUST BOM_GUST_PER REUNION_GUST REUNION_GUST_PER USA_SEAHGT USA_SEARAD_NE USA_SEARAD_SE USA_SEARAD_SW USA_SEARAD_NW STORM_SPEED STORM_DIR
1950156N20116 1950 26 WP MM NOT_NAMED 1950-06-05 00:00:00 TS 20.0000 115.800 main 294 287 O________OOO__ jtwc_wp WP021950 20.0000 115.800 25 -1 20.0000 115.800 TC 25 20.0000 115.800 1 25 20.0000 115.800 25 1004 60 6 58
1950156N20116 1950 26 WP MM NOT_NAMED 1950-06-05 03:00:00 TS 20.1498 116.055 main 292 271 P________PPP__ WP021950 20.1476 116.060 25 -1 20.1476 116.060 TC 25 20.1566 116.040 1 25 20.1476 116.060 25 1004 60 6 57
1950156N20116 1950 26 WP MM NOT_NAMED 1950-06-05 06:00:00 TS 20.3026 116.294 main 273 264 O________OPO__ jtwc_wp WP021950 20.3000 116.300 25 -1 20.3000 116.300 TC 25 20.3104 116.274 1 25 20.3000 116.300 25 1004 60 5 54
1950156N20116 1950 26 WP MM NOT_NAMED 1950-06-05 09:00:00 TS 20.4578 116.505 main 256 248 P________PPP__ WP021950 20.4574 116.508 25 -1 20.4574 116.508 TC 25 20.4590 116.497 1 25 20.4574 116.508 25 1003 90 5 52
1950156N20116 1950 26 WP MM NOT_NAMED 1950-06-05 12:00:00 TS 20.6000 116.700 main 252 245 O________OOO__ jtwc_wp WP021950 20.6000 116.700 25 -1 20.6000 116.700 TC 25 20.6000 116.700 1 25 20.6000 116.700 25 1003 120 4 56
1950156N20116 1950 26 WP MM NOT_NAMED 1950-06-05 15:00:00 TS 20.7080 116.901 main 248 242 P________PPP__ WP021950 20.7000 116.908 27 -1 20.7000 116.908 TC 27 20.7320 116.881 1 26 20.7000 116.908 27 1002 120 5 67
1950156N20116 1950 26 WP MM NOT_NAMED 1950-06-05 18:00:00 TS 20.7841 117.153 main 245 238 O_O______OPO__ jtwc_wp WP021950 20.8000 117.100 30 -1 20.3000 118.200 1 29 998 20.8000 117.100 TC 30 20.8572 117.050 1 27 20.8000 117.100 30 1002 120 4 63
1950156N20116 1950 26 WP MM NOT_NAMED 1950-06-05 21:00:00 TS 20.8964 117.290 main 238 227 P_P______PPP__ WP021950 20.9499 117.243 30 -1 20.4101 117.717 1 33 997 20.9499 117.243 TC 30 20.9789 117.219 1 28 20.9499 117.243 30 1001 150 3 40
1950156N20116 1950 26 WP MM NOT_NAMED 1950-06-06 00:00:00 TS 21.0211 117.368 main 231 221 O_O______OOO__ jtwc_wp WP021950 21.1000 117.400 30 -1 20.6000 117.200 2 38 996 21.1000 117.400 TC 30 21.1000 117.400 1 30 21.1000 117.400 30 1001 180 3 30
1950156N20116 1950 26 WP MM NOT_NAMED 1950-06-06 03:00:00 TS 21.1467 117.443 main 221 206 P_P______PPP__ WP021950 21.2001 117.643 30 -1 20.9202 116.661 2 43 994 21.2001 117.643 TC 30 21.2129 117.627 1 31 21.2001 117.643 30 1000 210 3 34
1950156N20116 1950 26 WP MM NOT_NAMED 1950-06-06 06:00:00 TS 21.3055 117.573 main 211 199 O_O______OPO__ jtwc_wp WP021950 21.3000 117.900 30 -1 21.3000 116.300 3 48 992 21.3000 117.900 TC 30 21.3277 117.865 1 32 21.3000 117.900 30 999 240 4 39
1950156N20116 1950 26 WP MM NOT_NAMED 1950-06-06 09:00:00 TS 21.4891 117.744 main 199 196 P_P______PPP__ WP021950 21.4424 118.108 32 -1 21.6648 116.302 3 48 992 21.4424 118.108 TC 32 21.4536 118.096 1 33 21.4424 118.108 32 998 240 5 42
1950156N20116 1950 26 WP MM NOT_NAMED 1950-06-06 12:00:00 TS 21.6800 117.940 main 196 196 O_O______OOO__ jtwc_wp WP021950 21.6000 118.300 35 0 22.0000 116.500 3 48 992 21.6000 118.300 TC 35 21.6000 118.300 2 35 21.6000 118.300 35 998 240 5 45
1950156N20116 1950 26 WP MM NOT_NAMED 1950-06-06 15:00:00 TS 21.8543 118.144 main 198 198 P_P______PPP__ WP021950 21.7350 118.523 35 0 22.2800 116.677 3 43 992 21.7350 118.523 TC 35 21.7865 118.474 2 35 21.7350 118.523 35 997 180 5 45
1950156N20116 1950 26 WP MM NOT_NAMED 1950-06-06 18:00:00 TS 22.0385 118.323 main 203 176 O_O______OPO__ jtwc_wp WP021950 21.9000 118.700 35 0 22.5000 116.900 2 38 992 21.9000 118.700 TC 35 21.9924 118.617 2 35 21.9000 118.700 35 997 120 5 34
1950156N20116 1950 26 WP MM NOT_NAMED 1950-06-06 21:00:00 TS 22.2634 118.443 main 176 162 P_P______PPP__ WP021950 22.1500 118.780 35 0 22.6650 117.150 2 38 992 22.1500 118.780 TC 35 22.2021 118.727 2 35 22.1500 118.780 35 997 120 5 23
1950156N20116 1950 26 WP MM NOT_NAMED 1950-06-07 00:00:00 TS 22.4800 118.520 main 162 153 O_O______OOO__ jtwc_wp WP021950 22.4000 118.800 35 0 22.8000 117.400 2 38 992 22.4000 118.800 TC 35 22.4000 118.800 2 35 22.4000 118.800 35 997 120 4 18
1950156N20116 1950 26 WP MM NOT_NAMED 1950-06-07 03:00:00 TS 22.6440 118.572 main 159 143 P_P______PPP__ WP021950 22.5650 118.808 35 0 22.9649 117.608 2 38 992 22.5650 118.808 TC 35 22.5602 118.832 2 35 22.5650 118.808 35 997 120 3 15
1950156N20116 1950 26 WP MM NOT_NAMED 1950-06-07 06:00:00 TS 22.7815 118.606 main 143 135 O_O______OPO__ jtwc_wp WP021950 22.7000 118.800 35 0 23.1000 117.800 2 38 992 22.7000 118.800 TC 35 22.7074 118.830 2 35 22.7000 118.800 35 998 120 3 15
1950156N20116 1950 26 WP MM NOT_NAMED 1950-06-07 09:00:00 TS 22.9117 118.644 main 135 135 P_P______PPP__ WP021950 22.8500 118.800 35 0 23.1575 118.008 2 38 992 22.8500 118.800 TC 35 22.8509 118.813 2 35 22.8500 118.800 35 998 120 3 16
1950156N20116 1950 26 WP MM NOT_NAMED 1950-06-07 12:00:00 TS 23.0400 118.680 main 136 120 O_O______OOO__ jtwc_wp WP021950 23.0000 118.800 35 0 23.2000 118.200 2 38 992 23.0000 118.800 TC 35 23.0000 118.800 2 35 23.0000 118.800 35 999 120 3 12
1950156N20116 1950 26 WP MM NOT_NAMED 1950-06-07 15:00:00 TS 23.1774 118.698 main 120 112 P_P______PPP__ WP021950 23.1425 118.793 32 -1 23.2999 118.343 2 38 992 23.1425 118.793 TC 32 23.1594 118.770 2 33 23.1425 118.793 32 999 120 3 8
1950156N20116 1950 26 WP MM NOT_NAMED 1950-06-07 18:00:00 TS 23.3254 118.731 main 112 105 O_O______OPO__ jtwc_wp WP021950 23.3000 118.800 30 -1 23.4000 118.500 2 38 992 23.3000 118.800 TC 30 23.3271 118.753 2 32 23.3000 118.800 30 1000 120 3 16
1950156N20116 1950 26 WP MM NOT_NAMED 1950-06-07 21:00:00 TS 23.4792 118.792 main 107 101 P_P______PPP__ WP021950 23.4774 118.813 30 -1 23.4575 118.735 2 38 992 23.4774 118.813 TC 30 23.5061 118.785 2 31 23.4774 118.813 30 1001 120 4 28
1950156N20116 1950 26 WP MM NOT_NAMED 1950-06-08 00:00:00 TS 23.6600 118.920 main 94 84 O_O______OOO__ jtwc_wp WP021950 23.7000 118.900 30 -1 23.5000 119.000 2 38 992 23.7000 118.900 TC 30 23.7000 118.900 1 30 23.7000 118.900 30 1002 120 5 35
1950156N20116 1950 26 WP MM NOT_NAMED 1950-06-08 03:00:00 TS 23.8948 119.110 main 84 82 P_P______PPP__ WP021950 24.0074 119.097 27 -1 23.5413 119.138 2 38 992 24.0074 119.097 TC 27 23.9104 119.121 1 28 24.0074 119.097 27 1002 120 7 45
1950156N20116 1950 26 WP MM NOT_NAMED 1950-06-08 06:00:00 TS 24.1264 119.426 main 90 52 O_O______OPO__ jtwc_wp WP021950 24.3000 119.400 25 -1 23.6000 119.500 2 38 992 24.3000 119.400 TC 25 24.1338 119.431 1 27 24.3000 119.400 25 1003 120 8 61
1950156N20116 1950 26 WP MM NOT_NAMED 1950-06-08 09:00:00 TS 24.2871 119.884 main 52 10 P_P______PPP__ WP021950 24.4797 119.740 25 -1 23.6703 120.358 2 33 995 24.4797 119.740 TC 25 24.3652 119.800 1 26 24.4797 119.740 25 1003 150 11 77
1950156N20116 1950 26 WP MM NOT_NAMED 1950-06-08 12:00:00 TS 24.3714 120.571 main 0 0 O_O______OOO__ jtwc_wp WP021950 24.6000 120.200 25 -1 23.8000 121.500 1 29 998 24.6000 120.200 TC 25 24.6000 120.200 1 25 24.6000 120.200 25 1004 180 15 85
1950156N20116 1950 26 WP MM NOT_NAMED 1950-06-08 15:00:00 TS 24.4208 121.547 main 0 0 P_P______P_P__ WP021950 24.7033 120.807 22 -1 23.9969 122.656 1 26 1000 24.7033 120.807 TC 22 1 24.7033 120.807 22 1004 150 21 86
1950156N20116 1950 26 WP MM NOT_NAMED 1950-06-08 18:00:00 TS 24.5143 122.871 main 101 101 O_O______O_O__ jtwc_wp WP021950 24.8000 121.500 20 -1 24.3000 123.900 1 23 1002 24.8000 121.500 TC 20 1 24.8000 121.500 20 1005 120 34 85
1950156N20116 1950 26 WP MM NOT_NAMED 1950-06-08 21:00:00 TS 24.7356 125.244 main 324 324 __P___________ WP021950 -1 24.7356 125.244 1 23 1003 TC 1 34 78
1950156N20116 1950 26 WP MM NOT_NAMED 1950-06-09 00:00:00 TS 25.2000 126.500 main 453 453 __O___________ -1 25.2000 126.500 1 23 1004 22 68
1950156N20116 1950 26 WP MM NOT_NAMED 1950-06-09 03:00:00 TS 25.5788 127.506 main 556 556 __P___________ -1 25.5788 127.506 1 23 1005 18 67
1950156N20116 1950 26 WP MM NOT_NAMED 1950-06-09 06:00:00 TS 25.9000 128.300 main 615 574 __O___________ -1 25.9000 128.300 1 23 1006 14 67
1950156N20116 1950 26 WP MM NOT_NAMED 1950-06-09 09:00:00 TS 26.1418 128.961 main 571 526 __P___________ -1 26.1418 128.961 1 21 1006 12 65
1950156N20116 1950 26 WP MM NOT_NAMED 1950-06-09 12:00:00 ET 26.4000 129.500 main 526 473 __O___________ -1 26.4000 129.500 9 19 1006 11 56
1950156N20116 1950 26 WP MM NOT_NAMED 1950-06-09 15:00:00 ET 26.7770 130.000 main 473 424 __P___________ -1 26.7770 130.000 9 1006 12 48
1950156N20116 1950 26 WP MM NOT_NAMED 1950-06-09 18:00:00 ET 27.2000 130.500 main 424 391 __O___________ -1 27.2000 130.500 9 1006 12 50
1950156N20116 1950 26 WP MM NOT_NAMED 1950-06-09 21:00:00 ET 27.5695 131.056 main 381 348 __P___________ -1 27.5695 131.056 9 1006 13 53
1950156N20116 1950 26 WP MM NOT_NAMED 1950-06-10 00:00:00 ET 28.0000 131.700 main 348 323 __O___________ -1 28.0000 131.700 9 1006 15 53
1950156N20116 1950 26 WP MM NOT_NAMED 1950-06-10 03:00:00 ET 28.4867 132.428 main 323 300 __P___________ -1 28.4867 132.428 9 1006 19 50
1950156N20116 1950 26 WP MM NOT_NAMED 1950-06-10 06:00:00 ET 29.2000 133.300 main 305 297 __O___________ -1 29.2000 133.300 9 1006 24 43
1950156N20116 1950 26 WP MM NOT_NAMED 1950-06-10 09:00:00 ET 30.2524 134.342 main 294 226 __P___________ -1 30.2524 134.342 9 1007 30 40
1950156N20116 1950 26 WP MM NOT_NAMED 1950-06-10 12:00:00 ET 31.5000 135.500 main 213 __O___________ -1 31.5000 135.500 9 1008 32 38

デジタル台風データ・検索

IBTrACS Databaseについて

本データベースは、米国NOAAが公開する1842年以降の世界の熱帯低気圧のベストトラックデータアーカイブInternational Best Track Archive for Climate Stewardship (IBTrACS)を、ウェブで閲覧しやすい形式に変換したものです。

最終更新日:2021-12-01